Aviation Digital Data Service (ADDS)

Output produced by METARs form (1634 UTC 24 April 2014)
found at http://aviationweather.gov/adds/metars/
 
KPIT 241445Z 2415/2518 VRB03KT P6SM BKN120 
     FM251500 15010G16KT P6SM -SHRA OVC050